createdAt,value
2019-05-11T00:00:23.084Z,68.86
2019-05-11T00:02:56.577Z,68.99
2019-05-11T00:05:29.259Z,69.23
2019-05-11T00:08:02.655Z,69.24
2019-05-11T00:10:34.952Z,69.17
2019-05-11T00:13:08.213Z,69.21
2019-05-11T00:15:39.856Z,69.09
2019-05-11T00:18:11.549Z,69.13
2019-05-11T00:20:45.384Z,68.91
2019-05-11T00:23:17.098Z,68.72
2019-05-11T00:25:49.249Z,68.76
2019-05-11T00:28:21.221Z,68.49
2019-05-11T00:30:52.954Z,68.05
2019-05-11T00:33:24.637Z,67.88
2019-05-11T00:35:56.335Z,68.01
2019-05-11T00:38:29.280Z,68.37
2019-05-11T00:41:01.665Z,68.46
2019-05-11T00:43:33.329Z,68.70
2019-05-11T00:46:04.959Z,68.19
2019-05-11T00:48:36.599Z,68.32
2019-05-11T00:51:08.269Z,68.48
2019-05-11T00:53:39.970Z,68.65
2019-05-11T00:56:12.737Z,69.25
2019-05-11T00:58:44.419Z,69.89
2019-05-11T01:01:16.124Z,70.31
2019-05-11T01:03:47.767Z,70.36
2019-05-11T01:06:19.542Z,70.26
2019-05-11T01:08:51.296Z,69.87
2019-05-11T01:11:22.992Z,69.88
2019-05-11T01:13:54.647Z,69.45
2019-05-11T01:16:27.391Z,69.53
2019-05-11T01:19:01.379Z,70.11
2019-05-11T01:21:33.461Z,72.09
2019-05-11T01:24:05.114Z,72.58
2019-05-11T01:26:36.766Z,72.60
2019-05-11T01:29:08.477Z,72.45
2019-05-11T01:31:40.125Z,72.25
2019-05-11T01:34:11.762Z,72.27
2019-05-11T01:36:44.609Z,72.68
2019-05-11T01:39:16.456Z,72.65
2019-05-11T01:41:49.967Z,72.66
2019-05-11T01:44:24.118Z,72.80
2019-05-11T01:46:55.780Z,72.65
2019-05-11T01:49:27.413Z,72.17
2019-05-11T01:51:59.046Z,72.21
2019-05-11T01:54:30.717Z,71.84
2019-05-11T01:57:02.419Z,71.94
2019-05-11T01:59:34.184Z,72.11
2019-05-11T02:02:09.471Z,72.07
2019-05-11T02:04:41.200Z,72.00
2019-05-11T02:07:13.140Z,72.47
2019-05-11T02:09:44.842Z,73.12
2019-05-11T02:12:17.624Z,73.45
2019-05-11T02:14:52.420Z,73.05
2019-05-11T02:17:24.469Z,73.09
2019-05-11T02:19:56.168Z,73.31
2019-05-11T02:22:27.837Z,72.97
2019-05-11T02:25:01.121Z,72.70
2019-05-11T02:27:32.984Z,72.09
2019-05-11T02:30:04.794Z,72.03
2019-05-11T02:32:36.464Z,72.23
2019-05-11T02:35:08.534Z,72.86
2019-05-11T02:38:15.417Z,73.36
2019-05-11T02:40:51.765Z,73.55
2019-05-11T02:46:20.579Z,73.51
2019-05-11T02:51:37.474Z,72.89
2019-05-11T02:57:19.140Z,73.38
2019-05-11T02:59:50.805Z,73.57
2019-05-11T03:09:48.316Z,74.36
2019-05-11T03:12:19.963Z,74.63
2019-05-11T03:17:58.965Z,75.20
2019-05-11T03:20:49.231Z,75.31
2019-05-11T03:31:10.501Z,76.67
2019-05-11T03:44:54.571Z,77.52
2019-05-11T03:47:58.837Z,77.66
2019-05-11T03:57:28.911Z,77.61
2019-05-11T04:00:47.270Z,77.48
2019-05-11T04:03:30.957Z,76.89
2019-05-11T04:06:57.839Z,77.43
2019-05-11T04:09:34.178Z,77.34
2019-05-11T04:12:08.297Z,77.54
2019-05-11T04:14:48.026Z,77.57
2019-05-11T04:17:25.981Z,77.99
2019-05-11T04:20:12.813Z,78.14
2019-05-11T04:26:12.501Z,78.40
2019-05-11T04:29:27.080Z,78.20
2019-05-11T04:34:43.375Z,78.57
2019-05-11T04:37:15.137Z,78.64
2019-05-11T04:39:46.910Z,78.80
2019-05-11T04:42:18.554Z,78.92
2019-05-11T04:44:52.511Z,78.97
2019-05-11T04:47:23.639Z,78.89
2019-05-11T04:49:55.310Z,78.47
2019-05-11T04:52:26.963Z,78.42
2019-05-11T04:54:58.972Z,78.28
2019-05-11T04:57:30.709Z,77.68
2019-05-11T05:00:02.386Z,76.89
2019-05-11T05:02:34.060Z,77.34
2019-05-11T05:05:06.994Z,77.57
2019-05-11T05:07:47.744Z,77.49
2019-05-11T05:10:18.938Z,77.69
2019-05-11T05:12:51.338Z,78.02
2019-05-11T05:15:25.225Z,78.30
2019-05-11T05:17:56.868Z,78.79
2019-05-11T05:20:28.515Z,79.08
2019-05-11T05:23:00.177Z,79.09
2019-05-11T05:25:31.829Z,78.91
2019-05-11T05:28:04.028Z,79.04
2019-05-11T05:30:35.728Z,78.94
2019-05-11T05:33:07.435Z,78.80
2019-05-11T05:35:39.105Z,78.73
2019-05-11T05:38:10.845Z,78.69
2019-05-11T05:40:42.515Z,78.65
2019-05-11T05:43:26.172Z,78.15
2019-05-11T05:45:48.785Z,77.81
2019-05-11T05:48:20.463Z,77.33
2019-05-11T05:50:54.653Z,77.23
2019-05-11T05:53:26.435Z,77.03
2019-05-11T05:55:58.414Z,76.71
2019-05-11T05:58:30.060Z,75.74
2019-05-11T06:01:01.830Z,75.42
2019-05-11T06:03:36.711Z,74.90
2019-05-11T06:06:08.734Z,74.20
2019-05-11T06:08:43.132Z,73.36
2019-05-11T06:11:13.732Z,69.71
2019-05-11T06:13:45.988Z,66.48
2019-05-11T06:16:17.820Z,64.00
2019-05-11T06:18:49.945Z,62.37
2019-05-11T06:21:22.832Z,65.55
2019-05-11T06:23:55.568Z,63.65
2019-05-11T06:26:27.226Z,61.59
2019-05-11T06:28:58.914Z,59.42
2019-05-11T06:31:34.415Z,57.26
2019-05-11T06:34:06.062Z,56.34
2019-05-11T06:36:37.713Z,56.56
2019-05-11T06:39:09.565Z,55.33
2019-05-11T06:41:41.226Z,55.04
2019-05-11T06:44:12.881Z,53.76
2019-05-11T06:46:44.531Z,52.17
2019-05-11T06:49:18.300Z,50.52
2019-05-11T06:51:50.507Z,49.59
2019-05-11T06:54:22.714Z,48.67
2019-05-11T06:56:54.417Z,48.00
2019-05-11T06:59:26.097Z,47.75
2019-05-11T07:01:57.840Z,47.57
2019-05-11T07:04:29.599Z,48.22
2019-05-11T07:07:01.258Z,48.14
2019-05-11T07:09:32.975Z,47.20
2019-05-11T07:12:04.691Z,46.97
2019-05-11T07:14:36.386Z,46.41
2019-05-11T07:17:08.049Z,49.22
2019-05-11T07:19:40.129Z,48.08
2019-05-11T07:22:11.904Z,46.10
2019-05-11T07:24:43.566Z,44.21
2019-05-11T07:27:15.220Z,43.67
2019-05-11T07:29:48.516Z,43.12
2019-05-11T07:32:25.688Z,44.85
2019-05-11T07:34:54.182Z,45.84
2019-05-11T07:37:28.043Z,45.91
2019-05-11T07:40:00.019Z,45.01
2019-05-11T07:42:33.318Z,42.83
2019-05-11T07:45:05.247Z,43.34
2019-05-11T07:47:37.961Z,41.54
2019-05-11T07:50:11.089Z,41.51
2019-05-11T07:52:42.748Z,41.82
2019-05-11T07:55:18.989Z,41.57
2019-05-11T07:57:51.779Z,41.83
2019-05-11T08:00:23.608Z,46.81
2019-05-11T08:02:55.341Z,45.60
2019-05-11T08:05:29.479Z,43.67
2019-05-11T08:08:01.202Z,41.86
2019-05-11T08:10:32.979Z,42.42
2019-05-11T08:13:09.137Z,41.08
2019-05-11T08:15:42.787Z,39.61
2019-05-11T08:18:18.749Z,38.75
2019-05-11T08:20:50.659Z,37.98
2019-05-11T08:23:23.993Z,39.99
2019-05-11T08:25:58.139Z,39.69
2019-05-11T08:28:31.291Z,38.20
2019-05-11T08:31:03.075Z,39.44
2019-05-11T08:33:34.746Z,37.25
2019-05-11T08:36:08.321Z,36.58
2019-05-11T08:38:40.016Z,38.47
2019-05-11T08:41:11.789Z,36.49
2019-05-11T08:43:43.495Z,37.08
2019-05-11T08:46:15.152Z,34.33
2019-05-11T08:48:47.863Z,34.08
2019-05-11T08:51:21.109Z,32.76
2019-05-11T08:53:52.809Z,31.86
2019-05-11T08:56:24.823Z,30.85
2019-05-11T08:58:58.780Z,30.84
2019-05-11T09:01:31.347Z,30.86
2019-05-11T09:04:04.252Z,29.20
2019-05-11T09:06:37.677Z,29.46
2019-05-11T09:09:13.178Z,29.77
2019-05-11T09:11:44.920Z,29.66
2019-05-11T09:14:19.378Z,29.87
2019-05-11T09:16:51.151Z,29.65
2019-05-11T09:19:25.682Z,29.36
2019-05-11T09:21:58.791Z,29.96
2019-05-11T09:24:30.856Z,30.03
2019-05-11T09:27:03.079Z,30.19
2019-05-11T09:29:34.832Z,33.31
2019-05-11T09:32:08.673Z,34.03
2019-05-11T09:34:39.838Z,32.16
2019-05-11T09:37:11.492Z,31.41
2019-05-11T09:39:47.690Z,31.16
2019-05-11T09:42:18.959Z,31.41
2019-05-11T09:44:50.975Z,31.81
2019-05-11T09:47:22.782Z,30.23
2019-05-11T09:49:54.435Z,30.60
2019-05-11T09:52:32.370Z,29.72
2019-05-11T09:55:02.886Z,28.69
2019-05-11T09:57:34.853Z,29.37
2019-05-11T10:00:08.732Z,29.39
2019-05-11T10:02:40.598Z,29.21
2019-05-11T10:05:12.461Z,28.97
2019-05-11T10:07:44.393Z,28.86
2019-05-11T10:10:18.418Z,30.07
2019-05-11T10:12:52.665Z,30.33
2019-05-11T10:15:23.872Z,29.88
2019-05-11T10:17:55.567Z,30.10
2019-05-11T10:20:28.636Z,29.83
2019-05-11T10:23:00.771Z,29.85
2019-05-11T10:25:32.469Z,29.68
2019-05-11T10:28:04.131Z,30.26
2019-05-11T10:30:38.616Z,29.94
2019-05-11T10:33:09.284Z,29.66
2019-05-11T10:35:40.977Z,31.58
2019-05-11T10:38:14.250Z,31.09
2019-05-11T10:40:48.000Z,30.64
2019-05-11T10:43:19.970Z,30.67
2019-05-11T10:45:51.774Z,30.61
2019-05-11T10:48:23.414Z,29.79
2019-05-11T10:50:57.748Z,28.82
2019-05-11T10:53:29.500Z,30.86
2019-05-11T10:56:01.481Z,30.27
2019-05-11T10:58:33.180Z,28.96
2019-05-11T11:01:04.854Z,29.05
2019-05-11T11:03:38.431Z,28.15
2019-05-11T11:06:10.231Z,33.99
2019-05-11T11:08:42.570Z,32.08
2019-05-11T11:11:14.306Z,30.46
2019-05-11T11:13:47.984Z,29.73
2019-05-11T11:16:35.209Z,30.54
2019-05-11T11:18:53.350Z,31.89
2019-05-11T11:21:25.042Z,29.91
2019-05-11T11:23:58.746Z,29.25
2019-05-11T11:26:30.148Z,29.44
2019-05-11T11:29:01.816Z,28.55
2019-05-11T11:31:33.532Z,27.64
2019-05-11T11:34:05.191Z,28.04
2019-05-11T11:36:37.732Z,28.71
2019-05-11T11:39:09.451Z,30.23
2019-05-11T11:41:41.805Z,29.64
2019-05-11T11:44:13.498Z,30.17
2019-05-11T11:46:52.076Z,31.40
2019-05-11T11:49:19.011Z,32.40
2019-05-11T11:51:50.797Z,32.56
2019-05-11T11:54:22.485Z,33.48
2019-05-11T11:56:54.243Z,33.28
2019-05-11T11:59:28.397Z,33.31
2019-05-11T12:01:59.770Z,33.99
2019-05-11T12:04:31.454Z,35.07
2019-05-11T12:07:03.372Z,34.69
2019-05-11T12:09:37.665Z,34.46
2019-05-11T12:12:08.952Z,34.13
2019-05-11T12:14:40.789Z,33.78
2019-05-11T12:17:12.443Z,33.62
2019-05-11T12:19:44.675Z,33.93
2019-05-11T12:22:18.824Z,33.88
2019-05-11T12:24:50.836Z,34.48
2019-05-11T12:27:25.209Z,34.99
2019-05-11T12:29:58.192Z,34.87
2019-05-11T12:32:44.235Z,34.92
2019-05-11T12:35:17.850Z,34.55
2019-05-11T12:37:49.984Z,34.53
2019-05-11T12:40:21.715Z,34.61
2019-05-11T12:42:55.985Z,33.72
2019-05-11T12:45:29.579Z,34.16
2019-05-11T12:48:01.402Z,34.61
2019-05-11T12:50:33.578Z,34.52
2019-05-11T12:53:05.359Z,34.65
2019-05-11T12:55:38.090Z,34.45
2019-05-11T12:58:10.868Z,33.91
2019-05-11T13:00:43.350Z,34.80
2019-05-11T13:03:15.180Z,34.59
2019-05-11T13:05:48.397Z,35.58
2019-05-11T13:08:27.726Z,34.51
2019-05-11T13:11:02.646Z,33.65
2019-05-11T13:13:34.300Z,33.54
2019-05-11T13:16:05.981Z,33.18
2019-05-11T13:18:40.883Z,33.37
2019-05-11T13:21:12.542Z,32.66
2019-05-11T13:23:44.234Z,34.64
2019-05-11T13:26:17.807Z,34.78
2019-05-11T13:28:50.260Z,34.78
2019-05-11T13:31:21.967Z,35.26
2019-05-11T13:33:53.723Z,33.88
2019-05-11T13:36:25.404Z,32.31
2019-05-11T13:38:58.765Z,32.42
2019-05-11T13:41:34.814Z,33.41
2019-05-11T13:44:08.133Z,32.88
2019-05-11T13:46:40.020Z,31.26
2019-05-11T13:49:11.748Z,31.71
2019-05-11T13:51:43.487Z,31.14
2019-05-11T13:54:15.162Z,31.59
2019-05-11T13:56:48.390Z,32.44
2019-05-11T13:59:20.721Z,32.00
2019-05-11T14:01:52.454Z,31.18
2019-05-11T14:04:27.969Z,30.84
2019-05-11T14:06:59.170Z,33.24
2019-05-11T14:09:30.835Z,34.22
2019-05-11T14:12:02.526Z,31.59
2019-05-11T14:14:34.364Z,32.69
2019-05-11T14:17:08.114Z,32.22
2019-05-11T14:19:40.934Z,31.81
2019-05-11T14:22:12.608Z,33.71
2019-05-11T14:24:44.242Z,31.79
2019-05-11T14:27:18.072Z,31.54
2019-05-11T14:29:50.938Z,33.04
2019-05-11T14:32:22.738Z,32.58
2019-05-11T14:34:54.562Z,30.72
2019-05-11T14:37:28.576Z,30.56
2019-05-11T14:40:00.359Z,31.11
2019-05-11T14:42:32.043Z,30.26
2019-05-11T14:45:03.706Z,30.55
2019-05-11T14:47:38.621Z,30.90
2019-05-11T14:50:11.138Z,30.50
2019-05-11T14:52:42.826Z,30.15
2019-05-11T14:55:18.378Z,30.17
2019-05-11T14:57:52.429Z,30.43
2019-05-11T15:00:24.199Z,30.63
2019-05-11T15:02:58.253Z,31.89
2019-05-11T15:05:29.368Z,31.10
2019-05-11T15:08:01.240Z,32.28
2019-05-11T15:10:33.051Z,32.04
2019-05-11T15:13:05.474Z,32.48
2019-05-11T15:15:39.227Z,30.56
2019-05-11T15:18:10.959Z,30.43
2019-05-11T15:20:42.811Z,30.78
2019-05-11T15:23:18.066Z,30.70
2019-05-11T15:25:50.225Z,30.52
2019-05-11T15:28:23.057Z,30.52
2019-05-11T15:30:54.696Z,30.27
2019-05-11T15:33:27.873Z,30.44
2019-05-11T15:35:59.649Z,30.79
2019-05-11T15:38:31.350Z,32.04
2019-05-11T15:41:03.011Z,32.47
2019-05-11T15:43:35.355Z,30.69
2019-05-11T15:46:08.725Z,31.50
2019-05-11T15:48:55.854Z,30.81
2019-05-11T15:51:13.834Z,30.58
2019-05-11T15:53:47.577Z,30.07
2019-05-11T15:56:20.187Z,30.21
2019-05-11T15:58:51.829Z,31.07
2019-05-11T16:01:23.653Z,31.41
2019-05-11T16:03:58.171Z,30.93
2019-05-11T16:06:29.272Z,31.08
2019-05-11T16:09:01.619Z,32.01
2019-05-11T16:11:34.565Z,30.85
2019-05-11T16:14:08.612Z,30.05
2019-05-11T16:16:39.619Z,30.02
2019-05-11T16:19:14.998Z,30.27
2019-05-11T16:21:44.976Z,29.91
2019-05-11T16:24:16.664Z,29.62
2019-05-11T16:26:49.662Z,30.96
2019-05-11T16:29:21.719Z,30.54
2019-05-11T16:31:53.550Z,30.20
2019-05-11T16:34:27.622Z,29.73
2019-05-11T16:36:59.008Z,29.79
2019-05-11T16:39:30.682Z,29.85
2019-05-11T16:42:02.704Z,29.50
2019-05-11T16:44:34.399Z,29.87
2019-05-11T16:47:07.912Z,30.99
2019-05-11T16:49:39.458Z,30.84
2019-05-11T16:52:11.134Z,29.98
2019-05-11T16:54:42.781Z,30.98
2019-05-11T16:57:14.521Z,30.36
2019-05-11T16:59:47.944Z,31.28
2019-05-11T17:02:21.888Z,31.34
2019-05-11T17:04:53.501Z,32.67
2019-05-11T17:07:25.276Z,32.03
2019-05-11T17:09:59.465Z,31.15
2019-05-11T17:12:48.650Z,30.64
2019-05-11T17:15:25.101Z,32.66
2019-05-11T17:17:59.399Z,31.25
2019-05-11T17:20:32.461Z,31.23
2019-05-11T17:23:04.142Z,30.82
2019-05-11T17:25:37.989Z,30.74
2019-05-11T17:28:10.222Z,30.78
2019-05-11T17:30:42.273Z,30.79
2019-05-11T17:33:14.001Z,30.92
2019-05-11T17:35:47.883Z,31.57
2019-05-11T17:38:19.294Z,31.66
2019-05-11T17:40:51.551Z,32.24
2019-05-11T17:43:23.264Z,31.67
2019-05-11T17:45:58.470Z,31.70
2019-05-11T17:48:30.708Z,31.37
2019-05-11T17:51:02.442Z,36.27
2019-05-11T17:53:34.085Z,41.26
2019-05-11T17:56:05.797Z,42.44
2019-05-11T17:58:37.978Z,43.35
2019-05-11T18:01:09.849Z,42.64
2019-05-11T18:03:41.887Z,43.19
2019-05-11T18:06:13.644Z,43.53
2019-05-11T18:08:47.712Z,44.33
2019-05-11T18:11:18.808Z,43.72
2019-05-11T18:13:50.495Z,44.46
2019-05-11T18:16:24.105Z,44.54
2019-05-11T18:18:55.845Z,44.66
2019-05-11T18:21:28.115Z,44.94
2019-05-11T18:24:01.910Z,45.17
2019-05-11T18:26:33.650Z,44.78
2019-05-11T18:29:05.356Z,45.15
2019-05-11T18:31:38.331Z,45.18
2019-05-11T18:34:10.411Z,45.15
2019-05-11T18:36:43.136Z,45.78
2019-05-11T18:39:14.799Z,45.68
2019-05-11T18:41:48.371Z,45.79
2019-05-11T18:44:26.327Z,45.65
2019-05-11T18:46:59.278Z,45.87
2019-05-11T18:49:32.419Z,46.12
2019-05-11T18:52:08.270Z,45.63
2019-05-11T18:54:42.635Z,45.65
2019-05-11T18:57:14.468Z,45.68
2019-05-11T18:59:48.402Z,45.68
2019-05-11T19:02:20.230Z,45.73
2019-05-11T19:04:51.921Z,45.99
2019-05-11T19:07:24.702Z,45.79
2019-05-11T19:09:57.728Z,46.50
2019-05-11T19:12:29.519Z,46.72
2019-05-11T19:15:01.306Z,47.33
2019-05-11T19:17:34.176Z,47.17
2019-05-11T19:20:08.405Z,47.69
2019-05-11T19:22:41.870Z,47.72
2019-05-11T19:25:17.986Z,48.21
2019-05-11T19:27:50.803Z,48.84
2019-05-11T19:30:22.773Z,49.19
2019-05-11T19:32:54.466Z,48.63
2019-05-11T19:35:28.707Z,48.80
2019-05-11T19:38:00.132Z,48.93
2019-05-11T19:40:31.922Z,49.80
2019-05-11T19:43:03.641Z,50.38
2019-05-11T19:45:35.353Z,50.77
2019-05-11T19:48:09.615Z,51.53
2019-05-11T19:50:41.339Z,52.67
2019-05-11T19:53:14.612Z,53.63
2019-05-11T19:55:47.919Z,54.10
2019-05-11T19:58:20.257Z,53.79
2019-05-11T20:00:52.025Z,54.55
2019-05-11T20:03:24.591Z,55.55
2019-05-11T20:05:57.996Z,56.45
2019-05-11T20:08:30.694Z,56.78
2019-05-11T20:11:04.014Z,57.44
2019-05-11T20:13:35.733Z,57.62
2019-05-11T20:16:08.250Z,57.81
2019-05-11T20:18:41.926Z,56.93
2019-05-11T20:21:19.324Z,57.16
2019-05-11T20:23:50.038Z,57.61
2019-05-11T20:26:22.167Z,57.91
2019-05-11T20:28:54.150Z,58.21
2019-05-11T20:31:27.733Z,58.62
2019-05-11T20:33:59.534Z,58.94
2019-05-11T20:36:31.226Z,58.86
2019-05-11T20:39:08.147Z,58.71
2019-05-11T20:41:39.850Z,58.52
2019-05-11T20:44:11.499Z,58.65
2019-05-11T20:46:44.960Z,58.74
2019-05-11T20:49:16.737Z,58.85
2019-05-11T20:51:48.575Z,58.69
2019-05-11T20:54:20.228Z,59.44
2019-05-11T20:56:53.510Z,59.97
2019-05-11T20:59:25.265Z,59.91
2019-05-11T21:01:58.643Z,59.72
2019-05-11T21:04:31.655Z,60.00
2019-05-11T21:07:03.433Z,60.04
2019-05-11T21:09:35.125Z,60.06
2019-05-11T21:12:09.941Z,59.73
2019-05-11T21:14:41.812Z,60.74
2019-05-11T21:17:13.517Z,62.51
2019-05-11T21:19:45.247Z,63.74
2019-05-11T21:22:23.674Z,63.05
2019-05-11T21:24:55.584Z,64.08
2019-05-11T21:27:28.707Z,64.56
2019-05-11T21:30:00.670Z,64.28
2019-05-11T21:32:32.799Z,64.32
2019-05-11T21:35:08.506Z,64.36
2019-05-11T21:37:39.347Z,64.30
2019-05-11T21:40:11.758Z,65.06
2019-05-11T21:42:43.510Z,65.06
2019-05-11T21:45:15.226Z,64.20
2019-05-11T21:47:48.946Z,63.91
2019-05-11T21:50:21.134Z,63.92
2019-05-11T21:52:58.961Z,64.22
2019-05-11T21:55:31.259Z,64.46
2019-05-11T21:58:02.937Z,64.88
2019-05-11T22:00:34.662Z,65.14
2019-05-11T22:03:10.584Z,65.39
2019-05-11T22:05:42.922Z,65.67
2019-05-11T22:08:18.819Z,65.96
2019-05-11T22:10:50.579Z,65.67
2019-05-11T22:13:23.942Z,65.84
2019-05-11T22:15:57.625Z,65.83
2019-05-11T22:18:31.554Z,65.13
2019-05-11T22:21:12.505Z,65.09
2019-05-11T22:23:47.483Z,65.35
2019-05-11T22:26:20.706Z,65.97
2019-05-11T22:28:57.481Z,66.31
2019-05-11T22:31:29.616Z,67.81
2019-05-11T22:34:03.908Z,68.32
2019-05-11T22:36:38.527Z,68.13
2019-05-11T22:39:10.893Z,67.64
2019-05-11T22:41:42.644Z,68.83
2019-05-11T22:44:14.904Z,69.26
2019-05-11T22:46:48.834Z,69.01
2019-05-11T22:49:20.614Z,68.63
2019-05-11T22:51:52.342Z,68.47
2019-05-11T22:54:25.492Z,68.79
2019-05-11T22:56:58.656Z,69.69
2019-05-11T22:59:30.657Z,69.47
2019-05-11T23:02:02.452Z,69.37
2019-05-11T23:04:38.063Z,69.06
2019-05-11T23:07:09.449Z,68.78
2019-05-11T23:09:41.347Z,69.55
2019-05-11T23:12:14.309Z,70.68
2019-05-11T23:14:48.279Z,71.08
2019-05-11T23:17:20.375Z,70.78
2019-05-11T23:19:53.173Z,70.55
2019-05-11T23:22:57.581Z,70.67
2019-05-11T23:25:23.582Z,70.61
2019-05-11T23:27:55.309Z,69.72
2019-05-11T23:30:28.064Z,69.60
2019-05-11T23:33:00.044Z,69.90
2019-05-11T23:35:31.761Z,70.33
2019-05-11T23:38:03.967Z,70.35
2019-05-11T23:40:37.914Z,70.28
2019-05-11T23:43:10.906Z,70.14
2019-05-11T23:45:42.739Z,69.89
2019-05-11T23:48:14.654Z,69.85
2019-05-11T23:50:47.435Z,69.99
2019-05-11T23:53:25.205Z,69.72
2019-05-11T23:56:00.041Z,69.63
2019-05-11T23:58:32.175Z,69.94
